createdAt,value
2018-08-24T00:02:21.333Z,64.52
2018-08-24T00:04:49.450Z,65.06
2018-08-24T00:07:17.577Z,65.23
2018-08-24T00:09:47.111Z,65.05
2018-08-24T00:12:15.213Z,65.56
2018-08-24T00:14:43.286Z,65.16
2018-08-24T00:17:16.744Z,65.84
2018-08-24T00:19:44.810Z,65.81
2018-08-24T00:22:12.884Z,65.84
2018-08-24T00:24:40.962Z,65.60
2018-08-24T00:27:09.037Z,65.92
2018-08-24T00:29:37.091Z,66.26
2018-08-24T00:32:05.191Z,66.12
2018-08-24T00:34:33.317Z,65.67
2018-08-24T00:37:01.425Z,65.72
2018-08-24T00:39:29.548Z,66.31
2018-08-24T00:41:57.673Z,65.96
2018-08-24T00:44:25.745Z,66.08
2018-08-24T00:46:53.813Z,66.24
2018-08-24T00:49:21.980Z,65.69
2018-08-24T00:51:50.060Z,65.91
2018-08-24T00:54:18.214Z,65.78
2018-08-24T00:56:46.277Z,65.64
2018-08-24T00:59:14.363Z,66.09
2018-08-24T01:01:42.435Z,65.62
2018-08-24T01:04:10.513Z,65.90
2018-08-24T01:06:38.595Z,65.92
2018-08-24T01:09:08.740Z,65.46
2018-08-24T01:11:42.334Z,65.91
2018-08-24T01:14:10.424Z,65.86
2018-08-24T01:16:43.759Z,65.86
2018-08-24T01:19:11.889Z,65.71
2018-08-24T01:21:39.979Z,65.68
2018-08-24T01:24:08.071Z,65.67
2018-08-24T01:26:36.176Z,65.46
2018-08-24T01:31:38.533Z,66.30
2018-08-24T01:34:06.624Z,66.08
2018-08-24T01:36:34.683Z,66.15
2018-08-24T01:39:02.769Z,66.62
2018-08-24T01:41:30.877Z,66.33
2018-08-24T01:43:58.952Z,67.23
2018-08-24T01:46:27.053Z,68.81
2018-08-24T01:48:55.096Z,69.59
2018-08-24T01:51:23.164Z,70.66
2018-08-24T01:53:51.251Z,70.11
2018-08-24T01:56:19.308Z,71.00
2018-08-24T01:58:47.383Z,71.49
2018-08-24T02:01:15.436Z,71.03
2018-08-24T02:03:43.508Z,71.57
2018-08-24T02:06:11.560Z,71.28
2018-08-24T02:08:39.675Z,70.92
2018-08-24T02:11:39.231Z,71.54
2018-08-24T02:14:10.965Z,71.09
2018-08-24T02:16:40.367Z,70.68
2018-08-24T02:19:10.952Z,71.20
2018-08-24T02:21:44.276Z,71.64
2018-08-24T02:24:13.052Z,71.23
2018-08-24T02:26:41.807Z,71.78
2018-08-24T02:29:09.889Z,71.48
2018-08-24T02:31:43.276Z,71.46
2018-08-24T02:34:11.379Z,72.36
2018-08-24T02:36:39.426Z,72.19
2018-08-24T02:39:09.936Z,72.47
2018-08-24T02:41:37.991Z,72.43
2018-08-24T02:44:06.301Z,72.46
2018-08-24T02:46:34.379Z,73.24
2018-08-24T02:49:02.495Z,73.18
2018-08-24T02:51:30.603Z,72.42
2018-08-24T02:53:59.079Z,73.04
2018-08-24T02:56:27.127Z,73.18
2018-08-24T02:58:55.195Z,73.60
2018-08-24T03:01:23.291Z,73.76
2018-08-24T03:03:51.358Z,74.16
2018-08-24T03:06:19.405Z,73.52
2018-08-24T03:08:47.498Z,74.37
2018-08-24T03:11:15.605Z,73.70
2018-08-24T03:13:43.676Z,73.35
2018-08-24T03:16:11.803Z,74.78
2018-08-24T03:18:39.873Z,73.82
2018-08-24T03:21:07.963Z,74.82
2018-08-24T03:23:36.037Z,75.82
2018-08-24T03:26:04.096Z,75.28
2018-08-24T03:28:32.169Z,75.66
2018-08-24T03:31:00.267Z,77.41
2018-08-24T03:33:28.321Z,76.73
2018-08-24T03:35:56.397Z,78.11
2018-08-24T03:38:24.439Z,77.42
2018-08-24T03:40:52.592Z,77.10
2018-08-24T03:43:20.652Z,77.70
2018-08-24T03:45:48.786Z,76.57
2018-08-24T03:48:16.777Z,76.12
2018-08-24T03:50:44.865Z,75.28
2018-08-24T03:53:12.986Z,75.19
2018-08-24T03:55:41.013Z,74.08
2018-08-24T03:58:09.171Z,73.12
2018-08-24T04:00:37.248Z,73.12
2018-08-24T04:03:05.317Z,71.89
2018-08-24T04:05:33.400Z,72.40
2018-08-24T04:08:01.479Z,72.52
2018-08-24T04:10:29.554Z,72.36
2018-08-24T04:12:58.125Z,72.02
2018-08-24T04:15:26.140Z,72.80
2018-08-24T04:17:54.190Z,72.53
2018-08-24T04:20:22.251Z,73.24
2018-08-24T04:22:50.328Z,72.85
2018-08-24T04:25:18.406Z,73.38
2018-08-24T04:27:46.499Z,73.85
2018-08-24T04:30:14.551Z,73.24
2018-08-24T04:32:42.636Z,73.51
2018-08-24T04:35:10.712Z,74.20
2018-08-24T04:37:38.805Z,73.50
2018-08-24T04:40:06.911Z,73.84
2018-08-24T04:42:35.316Z,73.32
2018-08-24T04:45:03.408Z,73.83
2018-08-24T04:47:31.515Z,73.76
2018-08-24T04:49:59.573Z,73.97
2018-08-24T04:52:27.697Z,74.28
2018-08-24T04:54:55.812Z,74.12
2018-08-24T04:57:23.879Z,73.86
2018-08-24T04:59:51.940Z,73.41
2018-08-24T05:02:20.053Z,73.46
2018-08-24T05:04:48.148Z,72.44
2018-08-24T05:07:16.223Z,71.36
2018-08-24T05:09:44.305Z,71.07
2018-08-24T05:12:12.408Z,70.71
2018-08-24T05:14:40.506Z,69.74
2018-08-24T05:17:08.648Z,69.78
2018-08-24T05:19:36.716Z,68.79
2018-08-24T05:22:04.789Z,67.74
2018-08-24T05:24:32.936Z,67.49
2018-08-24T05:27:01.080Z,65.58
2018-08-24T05:29:29.348Z,64.20
2018-08-24T05:31:57.471Z,62.89
2018-08-24T05:34:25.533Z,63.06
2018-08-24T05:36:53.745Z,60.96
2018-08-24T05:39:21.832Z,61.19
2018-08-24T05:41:49.892Z,61.17
2018-08-24T05:44:17.954Z,61.61
2018-08-24T05:46:46.089Z,60.55
2018-08-24T05:49:14.176Z,59.97
2018-08-24T05:51:42.271Z,59.68
2018-08-24T05:54:10.344Z,59.74
2018-08-24T05:56:38.411Z,60.04
2018-08-24T05:59:06.524Z,60.24
2018-08-24T06:01:34.619Z,60.78
2018-08-24T06:04:02.725Z,60.92
2018-08-24T06:06:30.799Z,60.47
2018-08-24T06:09:04.192Z,60.65
2018-08-24T06:11:32.331Z,60.92
2018-08-24T06:14:00.465Z,60.38
2018-08-24T06:16:28.676Z,60.98
2018-08-24T06:18:57.394Z,61.38
2018-08-24T06:21:25.472Z,61.60
2018-08-24T06:23:53.604Z,62.39
2018-08-24T06:26:21.679Z,62.70
2018-08-24T06:28:49.736Z,62.42
2018-08-24T06:31:17.787Z,63.59
2018-08-24T06:33:45.860Z,63.73
2018-08-24T06:36:13.930Z,64.41
2018-08-24T06:38:42.028Z,64.60
2018-08-24T06:41:10.129Z,64.52
2018-08-24T06:43:38.220Z,66.07
2018-08-24T06:46:06.328Z,66.46
2018-08-24T06:48:34.505Z,65.78
2018-08-24T06:51:02.617Z,65.53
2018-08-24T06:53:30.774Z,66.37
2018-08-24T06:55:58.889Z,65.87
2018-08-24T06:58:27.003Z,65.70
2018-08-24T07:00:55.051Z,65.29
2018-08-24T07:03:23.165Z,65.26
2018-08-24T07:05:51.265Z,64.92
2018-08-24T07:08:20.416Z,65.10
2018-08-24T07:10:48.529Z,64.61
2018-08-24T07:13:16.639Z,64.99
2018-08-24T07:15:44.721Z,64.67
2018-08-24T07:18:12.819Z,63.64
2018-08-24T07:20:40.936Z,63.36
2018-08-24T07:23:09.003Z,63.12
2018-08-24T07:25:37.135Z,63.15
2018-08-24T07:28:05.230Z,62.41
2018-08-24T07:30:33.345Z,62.45
2018-08-24T07:33:01.427Z,62.00
2018-08-24T07:35:29.518Z,62.10
2018-08-24T07:37:57.616Z,62.38
2018-08-24T07:40:25.712Z,62.20
2018-08-24T07:42:53.776Z,62.11
2018-08-24T07:45:21.848Z,62.44
2018-08-24T07:47:49.938Z,62.25
2018-08-24T07:50:18.024Z,63.07
2018-08-24T07:52:46.121Z,63.01
2018-08-24T07:55:14.191Z,62.97
2018-08-24T07:57:42.268Z,62.40
2018-08-24T08:00:10.363Z,62.94
2018-08-24T08:02:43.868Z,63.34
2018-08-24T08:05:11.972Z,63.45
2018-08-24T08:07:40.057Z,64.26
2018-08-24T08:10:08.458Z,64.11
2018-08-24T08:12:36.669Z,63.97
2018-08-24T08:15:07.476Z,64.15
2018-08-24T08:17:35.996Z,63.70
2018-08-24T08:20:04.720Z,63.11
2018-08-24T08:22:32.848Z,62.31
2018-08-24T08:25:01.042Z,61.69
2018-08-24T08:27:29.433Z,61.78
2018-08-24T08:29:58.565Z,61.34
2018-08-24T08:32:27.112Z,61.78
2018-08-24T08:34:55.271Z,62.28
2018-08-24T08:37:23.900Z,61.53
2018-08-24T08:39:52.513Z,60.94
2018-08-24T08:42:20.982Z,61.58
2018-08-24T08:44:49.107Z,61.99
2018-08-24T08:47:17.177Z,61.59
2018-08-24T08:49:45.328Z,62.09
2018-08-24T08:52:14.640Z,62.35
2018-08-24T08:54:43.467Z,61.99
2018-08-24T08:57:11.676Z,62.37
2018-08-24T08:59:39.770Z,62.56
2018-08-24T09:02:09.659Z,62.94
2018-08-24T09:04:38.343Z,62.59
2018-08-24T09:07:06.668Z,62.32
2018-08-24T09:09:34.767Z,62.66
2018-08-24T09:12:02.908Z,61.76
2018-08-24T09:14:31.083Z,62.14
2018-08-24T09:16:59.338Z,62.56
2018-08-24T09:19:33.378Z,62.50
2018-08-24T09:22:07.002Z,62.05
2018-08-24T09:24:40.382Z,61.39
2018-08-24T09:27:13.749Z,61.09
2018-08-24T09:29:41.889Z,61.48
2018-08-24T09:32:10.249Z,61.01
2018-08-24T09:34:38.404Z,60.68
2018-08-24T09:37:10.668Z,60.38
2018-08-24T09:39:45.793Z,60.31
2018-08-24T09:42:14.392Z,60.17
2018-08-24T09:44:42.587Z,60.10
2018-08-24T09:47:16.162Z,59.60
2018-08-24T09:49:44.431Z,58.79
2018-08-24T09:52:18.055Z,57.93
2018-08-24T09:54:46.283Z,56.81
2018-08-24T09:57:14.342Z,56.61
2018-08-24T09:59:43.483Z,55.61
2018-08-24T10:02:16.925Z,55.23
2018-08-24T10:04:50.650Z,53.97
2018-08-24T10:07:25.080Z,54.34
2018-08-24T10:09:53.248Z,52.46
2018-08-24T10:12:21.570Z,50.82
2018-08-24T10:14:49.881Z,49.46
2018-08-24T10:17:17.966Z,48.10
2018-08-24T10:19:46.171Z,48.77
2018-08-24T10:22:14.281Z,47.10
2018-08-24T10:24:42.398Z,45.51
2018-08-24T10:27:10.588Z,45.04
2018-08-24T10:29:38.727Z,45.26
2018-08-24T10:32:06.795Z,43.93
2018-08-24T10:34:34.952Z,45.63
2018-08-24T10:37:03.231Z,45.49
2018-08-24T10:39:31.332Z,45.97
2018-08-24T10:41:59.516Z,45.69
2018-08-24T10:44:27.660Z,45.03
2018-08-24T10:46:55.774Z,43.59
2018-08-24T10:49:24.130Z,43.68
2018-08-24T10:51:52.172Z,44.02
2018-08-24T10:54:20.347Z,42.37
2018-08-24T10:56:55.012Z,42.91
2018-08-24T10:59:23.128Z,41.49
2018-08-24T11:01:51.212Z,41.44
2018-08-24T11:04:19.276Z,40.73
2018-08-24T11:06:47.435Z,40.06
2018-08-24T11:09:15.509Z,40.56
2018-08-24T11:11:43.610Z,40.10
2018-08-24T11:14:11.659Z,40.88
2018-08-24T11:16:39.768Z,40.93
2018-08-24T11:19:07.854Z,40.55
2018-08-24T11:21:35.981Z,41.94
2018-08-24T11:24:04.059Z,42.78
2018-08-24T11:26:32.190Z,42.45
2018-08-24T11:29:00.280Z,42.11
2018-08-24T11:31:28.841Z,41.00
2018-08-24T11:33:57.146Z,41.77
2018-08-24T11:36:25.269Z,41.07
2018-08-24T11:38:53.297Z,40.49
2018-08-24T11:41:21.444Z,40.00
2018-08-24T11:43:49.555Z,38.95
2018-08-24T11:46:17.662Z,37.39
2018-08-24T11:48:45.809Z,37.03
2018-08-24T11:51:13.948Z,37.08
2018-08-24T11:53:42.166Z,37.69
2018-08-24T11:56:10.355Z,38.02
2018-08-24T11:58:38.425Z,36.37
2018-08-24T12:01:06.596Z,36.61
2018-08-24T12:03:34.722Z,36.31
2018-08-24T12:06:02.888Z,36.97
2018-08-24T12:08:30.987Z,36.35
2018-08-24T12:10:59.243Z,35.23
2018-08-24T12:13:28.078Z,34.33
2018-08-24T12:15:56.167Z,34.15
2018-08-24T12:18:24.326Z,33.51
2018-08-24T12:20:52.320Z,33.84
2018-08-24T12:23:20.466Z,33.78
2018-08-24T12:25:48.572Z,35.08
2018-08-24T12:28:16.652Z,35.38
2018-08-24T12:30:44.778Z,35.47
2018-08-24T12:33:12.893Z,36.09
2018-08-24T12:35:40.984Z,35.48
2018-08-24T12:38:09.211Z,35.10
2018-08-24T12:40:37.266Z,36.15
2018-08-24T12:43:05.364Z,36.94
2018-08-24T12:45:33.521Z,37.17
2018-08-24T12:48:01.631Z,35.89
2018-08-24T12:50:29.719Z,35.89
2018-08-24T12:52:57.838Z,35.82
2018-08-24T12:55:25.981Z,34.28
2018-08-24T12:57:54.199Z,34.04
2018-08-24T13:00:22.290Z,32.79
2018-08-24T13:02:50.915Z,31.84
2018-08-24T13:05:19.120Z,32.89
2018-08-24T13:07:47.200Z,32.19
2018-08-24T13:10:15.812Z,33.05
2018-08-24T13:12:43.946Z,32.48
2018-08-24T13:15:12.062Z,32.79
2018-08-24T13:17:40.129Z,32.80
2018-08-24T13:20:08.242Z,31.80
2018-08-24T13:22:36.419Z,31.45
2018-08-24T13:25:04.498Z,31.72
2018-08-24T13:27:32.601Z,32.45
2018-08-24T13:30:00.674Z,32.89
2018-08-24T13:32:28.809Z,33.05
2018-08-24T13:34:56.897Z,32.96
2018-08-24T13:37:24.972Z,32.43
2018-08-24T13:39:53.075Z,31.85
2018-08-24T13:42:21.227Z,31.81
2018-08-24T13:44:49.384Z,32.30
2018-08-24T13:47:17.474Z,32.51
2018-08-24T13:49:45.525Z,32.79
2018-08-24T13:52:13.614Z,32.94
2018-08-24T13:54:41.693Z,32.79
2018-08-24T13:57:09.891Z,33.14
2018-08-24T13:59:38.139Z,33.56
2018-08-24T14:02:06.115Z,33.64
2018-08-24T14:04:34.184Z,34.01
2018-08-24T14:07:02.360Z,33.90
2018-08-24T14:09:30.440Z,34.03
2018-08-24T14:11:58.507Z,33.32
2018-08-24T14:14:26.598Z,32.41
2018-08-24T14:16:54.714Z,32.32
2018-08-24T14:19:22.804Z,32.37
2018-08-24T14:21:50.933Z,32.25
2018-08-24T14:24:19.116Z,32.40
2018-08-24T14:26:47.259Z,31.98
2018-08-24T14:29:15.372Z,32.29
2018-08-24T14:31:43.497Z,30.94
2018-08-24T14:34:18.227Z,30.42
2018-08-24T14:36:52.851Z,30.33
2018-08-24T14:39:20.974Z,29.27
2018-08-24T14:41:49.078Z,29.26
2018-08-24T14:44:17.158Z,30.14
2018-08-24T14:46:45.236Z,30.35
2018-08-24T14:49:13.348Z,30.62
2018-08-24T14:51:41.426Z,31.08
2018-08-24T14:54:09.536Z,31.00
2018-08-24T14:56:37.611Z,31.31
2018-08-24T14:59:05.876Z,32.35
2018-08-24T15:01:34.035Z,32.80
2018-08-24T15:04:02.137Z,33.17
2018-08-24T15:06:30.237Z,33.40
2018-08-24T15:08:58.381Z,32.80
2018-08-24T15:11:26.516Z,34.02
2018-08-24T15:13:54.872Z,33.97
2018-08-24T15:16:23.004Z,34.12
2018-08-24T15:18:51.096Z,34.46
2018-08-24T15:21:19.179Z,34.34
2018-08-24T15:23:47.269Z,34.18
2018-08-24T15:26:15.426Z,33.97
2018-08-24T15:28:43.501Z,33.56
2018-08-24T15:31:11.856Z,33.70
2018-08-24T15:33:39.935Z,33.55
2018-08-24T15:36:09.610Z,33.20
2018-08-24T15:38:37.669Z,33.04
2018-08-24T15:41:05.778Z,33.30
2018-08-24T15:43:33.836Z,33.92
2018-08-24T15:46:01.965Z,33.84
2018-08-24T15:48:30.072Z,34.22
2018-08-24T15:50:58.132Z,33.96
2018-08-24T15:53:26.674Z,33.78
2018-08-24T15:55:54.864Z,34.38
2018-08-24T15:58:23.093Z,34.07
2018-08-24T16:00:52.095Z,33.89
2018-08-24T16:03:20.175Z,34.44
2018-08-24T16:05:48.311Z,34.45
2018-08-24T16:08:16.457Z,34.21
2018-08-24T16:10:44.541Z,34.37
2018-08-24T16:13:12.625Z,35.62
2018-08-24T16:15:40.696Z,35.32
2018-08-24T16:18:14.187Z,35.91
2018-08-24T16:20:42.289Z,35.95
2018-08-24T16:23:10.475Z,36.15
2018-08-24T16:25:39.618Z,36.40
2018-08-24T16:28:07.677Z,36.30
2018-08-24T16:30:35.799Z,36.31
2018-08-24T16:33:04.693Z,36.51
2018-08-24T16:35:32.777Z,36.55
2018-08-24T16:38:00.859Z,36.73
2018-08-24T16:40:28.928Z,36.50
2018-08-24T16:42:57.056Z,36.93
2018-08-24T16:45:25.117Z,36.89
2018-08-24T16:47:53.236Z,37.33
2018-08-24T16:50:21.291Z,37.33
2018-08-24T16:52:49.364Z,37.54
2018-08-24T16:55:17.415Z,38.68
2018-08-24T16:57:45.627Z,38.82
2018-08-24T17:00:13.689Z,38.84
2018-08-24T17:02:41.770Z,39.15
2018-08-24T17:05:09.858Z,38.69
2018-08-24T17:07:37.919Z,39.12
2018-08-24T17:10:06.780Z,38.57
2018-08-24T17:12:35.000Z,38.04
2018-08-24T17:15:03.039Z,37.97
2018-08-24T17:20:10.507Z,37.30
2018-08-24T17:22:38.674Z,37.01
2018-08-24T17:25:06.734Z,37.37
2018-08-24T17:27:34.883Z,37.41
2018-08-24T17:30:02.997Z,37.46
2018-08-24T17:32:31.138Z,37.40
2018-08-24T17:34:59.313Z,37.62
2018-08-24T17:37:27.452Z,36.94
2018-08-24T17:39:55.580Z,37.35
2018-08-24T17:42:23.694Z,37.20
2018-08-24T17:44:51.779Z,38.11
2018-08-24T17:47:19.836Z,38.25
2018-08-24T17:49:47.902Z,38.91
2018-08-24T17:52:16.076Z,38.74
2018-08-24T17:54:44.150Z,39.16
2018-08-24T17:57:12.234Z,39.79
2018-08-24T17:59:40.422Z,39.97
2018-08-24T18:02:08.503Z,40.40
2018-08-24T18:04:36.619Z,40.52
2018-08-24T18:07:04.806Z,40.37
2018-08-24T18:09:32.855Z,40.87
2018-08-24T18:12:00.938Z,41.60
2018-08-24T18:14:29.424Z,42.11
2018-08-24T18:16:57.534Z,41.94
2018-08-24T18:19:25.626Z,42.52
2018-08-24T18:21:53.692Z,42.01
2018-08-24T18:24:21.904Z,42.73
2018-08-24T18:26:49.991Z,43.28
2018-08-24T18:29:18.055Z,43.58
2018-08-24T18:31:46.135Z,43.88
2018-08-24T18:34:14.248Z,44.14
2018-08-24T18:36:42.454Z,43.48
2018-08-24T18:39:11.899Z,43.93
2018-08-24T18:41:40.145Z,43.94
2018-08-24T18:44:08.613Z,44.33
2018-08-24T18:46:36.679Z,43.47
2018-08-24T18:49:05.079Z,43.42
2018-08-24T18:51:33.262Z,43.22
2018-08-24T18:54:01.380Z,42.89
2018-08-24T18:56:29.456Z,42.91
2018-08-24T18:58:57.630Z,42.96
2018-08-24T19:01:25.747Z,42.43
2018-08-24T19:03:53.838Z,42.26
2018-08-24T19:06:21.974Z,42.40
2018-08-24T19:08:50.097Z,42.88
2018-08-24T19:11:23.764Z,42.76
2018-08-24T19:13:52.204Z,42.62
2018-08-24T19:16:20.239Z,42.98
2018-08-24T19:18:53.630Z,43.24
2018-08-24T19:21:27.147Z,42.89
2018-08-24T19:23:55.215Z,42.60
2018-08-24T19:26:23.436Z,43.68
2018-08-24T19:28:57.050Z,43.12
2018-08-24T19:31:25.167Z,44.03
2018-08-24T19:33:53.403Z,43.91
2018-08-24T19:36:21.524Z,43.60
2018-08-24T19:38:49.673Z,43.66
2018-08-24T19:41:23.320Z,43.48
2018-08-24T19:43:51.463Z,43.33
2018-08-24T19:46:19.665Z,43.90
2018-08-24T19:48:53.289Z,43.39
2018-08-24T19:51:21.368Z,43.56
2018-08-24T19:53:49.496Z,43.85
2018-08-24T19:56:17.553Z,44.19
2018-08-24T19:58:51.041Z,43.76
2018-08-24T20:01:19.176Z,44.05
2018-08-24T20:03:47.263Z,44.53
2018-08-24T20:06:21.318Z,44.51
2018-08-24T20:08:54.627Z,44.57
2018-08-24T20:11:22.851Z,44.49
2018-08-24T20:13:50.941Z,44.19
2018-08-24T20:16:24.431Z,44.94
2018-08-24T20:18:52.921Z,44.97
2018-08-24T20:21:21.078Z,45.12
2018-08-24T20:23:49.280Z,45.06
2018-08-24T20:26:17.696Z,45.03
2018-08-24T20:28:46.114Z,45.16
2018-08-24T20:31:14.327Z,44.69
2018-08-24T20:33:42.468Z,44.39
2018-08-24T20:36:10.530Z,44.36
2018-08-24T20:38:38.565Z,43.94
2018-08-24T20:41:06.736Z,43.77
2018-08-24T20:43:34.836Z,43.99
2018-08-24T20:46:02.910Z,43.71
2018-08-24T20:48:31.009Z,44.03
2018-08-24T20:50:59.078Z,44.04
2018-08-24T20:53:27.119Z,43.93
2018-08-24T20:55:55.253Z,43.61
2018-08-24T20:58:23.315Z,43.82
2018-08-24T21:00:51.487Z,44.08
2018-08-24T21:03:19.576Z,44.43
2018-08-24T21:05:47.787Z,43.91
2018-08-24T21:08:15.899Z,44.04
2018-08-24T21:10:44.020Z,44.45
2018-08-24T21:13:12.099Z,44.05
2018-08-24T21:15:40.173Z,43.97
2018-08-24T21:18:08.239Z,44.51
2018-08-24T21:20:36.359Z,44.35
2018-08-24T21:23:04.668Z,44.70
2018-08-24T21:25:32.756Z,44.45
2018-08-24T21:28:00.811Z,44.43
2018-08-24T21:30:28.871Z,44.47
2018-08-24T21:32:56.942Z,44.44
2018-08-24T21:35:25.047Z,44.46
2018-08-24T21:37:53.185Z,45.02
2018-08-24T21:40:21.320Z,44.95
2018-08-24T21:42:49.408Z,44.43
2018-08-24T21:45:17.510Z,45.40
2018-08-24T21:47:45.751Z,45.45
2018-08-24T21:50:13.935Z,45.27
2018-08-24T21:52:41.992Z,45.22
2018-08-24T21:55:10.157Z,45.55
2018-08-24T21:57:38.801Z,45.76
2018-08-24T22:00:10.570Z,45.68
2018-08-24T22:02:38.714Z,45.95
2018-08-24T22:05:06.833Z,46.05
2018-08-24T22:07:34.917Z,45.73
2018-08-24T22:10:02.987Z,45.96
2018-08-24T22:12:31.107Z,46.35
2018-08-24T22:14:59.201Z,46.05
2018-08-24T22:17:27.307Z,46.64
2018-08-24T22:19:55.603Z,46.58
2018-08-24T22:22:23.679Z,46.94
2018-08-24T22:24:51.776Z,47.00
2018-08-24T22:27:19.937Z,46.66
2018-08-24T22:29:48.036Z,47.21
2018-08-24T22:32:16.166Z,46.80
2018-08-24T22:34:44.287Z,46.96
2018-08-24T22:37:12.491Z,47.20
2018-08-24T22:39:40.564Z,47.67
2018-08-24T22:42:08.664Z,47.08
2018-08-24T22:44:36.748Z,47.63
2018-08-24T22:47:05.111Z,47.42
2018-08-24T22:49:33.262Z,47.57
2018-08-24T22:52:01.342Z,47.76
2018-08-24T22:54:29.412Z,47.90
2018-08-24T22:56:57.584Z,48.07
2018-08-24T22:59:25.709Z,47.24
2018-08-24T23:01:53.794Z,47.84
2018-08-24T23:04:21.869Z,47.55
2018-08-24T23:06:49.985Z,47.57
2018-08-24T23:09:18.096Z,48.37
2018-08-24T23:11:46.190Z,47.69
2018-08-24T23:14:14.323Z,47.80
2018-08-24T23:16:42.437Z,47.53
2018-08-24T23:19:10.507Z,48.08
2018-08-24T23:21:38.593Z,48.17
2018-08-24T23:24:06.676Z,47.80
2018-08-24T23:26:34.797Z,48.39
2018-08-24T23:29:03.052Z,48.59
2018-08-24T23:31:31.391Z,48.02
2018-08-24T23:33:59.512Z,48.42
2018-08-24T23:36:27.560Z,47.95
2018-08-24T23:38:55.701Z,48.18
2018-08-24T23:41:23.781Z,48.48
2018-08-24T23:43:51.861Z,48.29
2018-08-24T23:46:19.959Z,48.76
2018-08-24T23:48:48.013Z,48.95
2018-08-24T23:51:16.114Z,48.86
2018-08-24T23:53:44.236Z,49.35
2018-08-24T23:56:12.361Z,49.52
2018-08-24T23:58:40.462Z,49.26
